createdAt,value
2023-09-16T00:01:13.992Z,63.25
2023-09-16T00:03:46.039Z,63.64
2023-09-16T00:06:14.353Z,64.17
2023-09-16T00:08:46.767Z,64.63
2023-09-16T00:11:15.936Z,64.79
2023-09-16T00:13:46.350Z,64.64
2023-09-16T00:16:13.811Z,64.83
2023-09-16T00:18:43.129Z,64.74
2023-09-16T00:21:12.338Z,64.43
2023-09-16T00:23:40.740Z,64.84
2023-09-16T00:26:09.045Z,65.09
2023-09-16T00:28:44.111Z,65.09
2023-09-16T00:31:14.365Z,65.23
2023-09-16T00:33:43.660Z,65.55
2023-09-16T00:36:13.423Z,65.58
2023-09-16T00:38:40.505Z,65.93
2023-09-16T00:41:14.715Z,66.21
2023-09-16T00:43:44.369Z,66.34
2023-09-16T00:46:12.636Z,66.27
2023-09-16T00:48:41.572Z,66.48
2023-09-16T00:51:13.514Z,66.63
2023-09-16T00:53:43.900Z,66.52
2023-09-16T00:56:11.185Z,66.45
2023-09-16T00:58:47.255Z,66.42
2023-09-16T01:01:17.720Z,66.45
2023-09-16T01:03:46.137Z,66.97
2023-09-16T01:06:18.922Z,67.31
2023-09-16T01:08:49.761Z,67.37
2023-09-16T01:11:23.042Z,67.59
2023-09-16T01:13:51.880Z,67.90
2023-09-16T01:16:35.757Z,67.97
2023-09-16T01:19:07.902Z,67.72
2023-09-16T01:21:35.170Z,67.72
2023-09-16T01:24:22.495Z,67.86
2023-09-16T01:26:49.723Z,67.88
2023-09-16T01:29:17.928Z,67.95
2023-09-16T01:31:47.712Z,67.93
2023-09-16T01:34:26.014Z,68.00
2023-09-16T01:36:54.798Z,68.12
2023-09-16T01:39:25.612Z,68.32
2023-09-16T01:41:53.941Z,68.63
2023-09-16T01:44:22.834Z,68.88
2023-09-16T01:46:51.149Z,69.08
2023-09-16T01:49:23.811Z,69.38
2023-09-16T01:51:52.479Z,69.43
2023-09-16T01:54:20.591Z,69.73
2023-09-16T01:56:51.256Z,69.97
2023-09-16T01:59:20.150Z,70.22
2023-09-16T02:01:49.623Z,70.57
2023-09-16T02:04:18.570Z,70.73
2023-09-16T02:06:48.448Z,70.92
2023-09-16T02:09:19.235Z,70.91
2023-09-16T02:11:46.344Z,71.03
2023-09-16T02:14:14.014Z,71.39
2023-09-16T02:16:43.584Z,71.55
2023-09-16T02:19:11.648Z,71.64
2023-09-16T02:21:39.226Z,71.86
2023-09-16T02:24:07.727Z,71.79
2023-09-16T02:26:36.108Z,71.82
2023-09-16T02:29:04.065Z,71.93
2023-09-16T02:31:32.313Z,71.90
2023-09-16T02:34:04.222Z,71.94
2023-09-16T02:36:32.819Z,72.00
2023-09-16T02:39:01.455Z,72.11
2023-09-16T02:41:28.949Z,72.38
2023-09-16T02:43:56.404Z,72.32
2023-09-16T02:46:27.599Z,72.26
2023-09-16T02:48:55.637Z,72.25
2023-09-16T02:51:24.379Z,72.35
2023-09-16T02:53:52.921Z,72.40
2023-09-16T02:56:24.327Z,72.58
2023-09-16T02:58:55.721Z,72.60
2023-09-16T03:01:25.357Z,72.70
2023-09-16T03:03:53.972Z,72.76
2023-09-16T03:06:23.277Z,73.15
2023-09-16T03:08:57.270Z,73.41
2023-09-16T03:11:26.338Z,73.81
2023-09-16T03:13:53.774Z,73.90
2023-09-16T03:16:24.198Z,73.95
2023-09-16T03:18:57.797Z,74.28
2023-09-16T03:21:30.013Z,74.47
2023-09-16T03:24:04.012Z,74.80
2023-09-16T03:26:33.335Z,74.83
2023-09-16T03:29:01.246Z,75.00
2023-09-16T03:31:30.752Z,75.04
2023-09-16T03:34:18.807Z,75.20
2023-09-16T03:36:49.123Z,75.36
2023-09-16T03:39:19.289Z,75.79
2023-09-16T03:41:47.305Z,76.17
2023-09-16T03:44:17.394Z,76.32
2023-09-16T03:46:49.210Z,76.63
2023-09-16T03:49:18.356Z,76.65
2023-09-16T03:51:47.404Z,76.66
2023-09-16T03:54:17.693Z,76.69
2023-09-16T03:56:50.105Z,76.65
2023-09-16T03:59:19.604Z,76.81
2023-09-16T04:01:51.489Z,76.92
2023-09-16T04:04:21.890Z,77.20
2023-09-16T04:06:51.218Z,77.38
2023-09-16T04:09:18.342Z,77.42
2023-09-16T04:11:48.778Z,77.56
2023-09-16T04:14:21.417Z,77.43
2023-09-16T04:16:53.224Z,77.31
2023-09-16T04:19:21.573Z,77.19
2023-09-16T04:21:51.899Z,77.30
2023-09-16T04:24:21.908Z,77.26
2023-09-16T04:26:50.657Z,77.22
2023-09-16T04:29:23.210Z,77.38
2023-09-16T04:31:54.351Z,77.65
2023-09-16T04:34:23.764Z,77.73
2023-09-16T04:36:56.041Z,77.65
2023-09-16T04:39:24.911Z,77.69
2023-09-16T04:41:55.228Z,77.97
2023-09-16T04:44:26.563Z,78.07
2023-09-16T04:46:57.464Z,77.87
2023-09-16T04:49:28.992Z,77.75
2023-09-16T04:51:57.726Z,77.63
2023-09-16T04:54:26.434Z,77.53
2023-09-16T04:56:57.772Z,77.65
2023-09-16T04:59:25.728Z,77.74
2023-09-16T05:01:54.641Z,77.71
2023-09-16T05:04:24.064Z,77.86
2023-09-16T05:06:57.640Z,78.01
2023-09-16T05:09:29.038Z,77.66
2023-09-16T05:11:57.355Z,77.71
2023-09-16T05:14:26.538Z,78.03
2023-09-16T05:16:54.895Z,77.83
2023-09-16T05:19:23.707Z,78.05
2023-09-16T05:21:52.485Z,77.95
2023-09-16T05:24:23.315Z,78.01
2023-09-16T05:26:53.121Z,78.06
2023-09-16T05:29:22.973Z,77.87
2023-09-16T05:31:51.607Z,77.89
2023-09-16T05:34:19.921Z,77.73
2023-09-16T05:36:51.415Z,77.64
2023-09-16T05:39:21.948Z,78.05
2023-09-16T05:41:51.297Z,77.98
2023-09-16T05:44:23.270Z,78.12
2023-09-16T05:46:52.059Z,78.22
2023-09-16T05:49:22.669Z,77.99
2023-09-16T05:51:55.985Z,77.65
2023-09-16T05:54:26.425Z,77.16
2023-09-16T05:56:54.818Z,77.35
2023-09-16T05:59:25.167Z,77.53
2023-09-16T06:01:57.704Z,77.55
2023-09-16T06:04:28.700Z,77.40
2023-09-16T06:06:56.780Z,77.16
2023-09-16T06:09:26.812Z,76.06
2023-09-16T06:11:56.245Z,74.89
2023-09-16T06:14:30.409Z,74.67
2023-09-16T06:16:59.167Z,73.74
2023-09-16T06:19:28.791Z,72.86
2023-09-16T06:21:58.861Z,72.62
2023-09-16T06:24:27.582Z,72.32
2023-09-16T06:26:56.127Z,71.96
2023-09-16T06:29:24.657Z,71.90
2023-09-16T06:31:52.238Z,71.77
2023-09-16T06:34:19.790Z,71.18
2023-09-16T06:36:50.434Z,70.86
2023-09-16T06:39:20.732Z,70.58
2023-09-16T06:41:51.611Z,70.29
2023-09-16T06:44:20.608Z,70.26
2023-09-16T06:46:51.857Z,70.61
2023-09-16T06:49:20.335Z,70.61
2023-09-16T06:51:50.808Z,70.63
2023-09-16T06:54:20.586Z,70.66
2023-09-16T06:56:48.082Z,70.72
2023-09-16T06:59:16.880Z,70.51
2023-09-16T07:01:48.361Z,70.58
2023-09-16T07:04:16.730Z,70.20
2023-09-16T07:06:44.779Z,69.54
2023-09-16T07:09:15.706Z,69.28
2023-09-16T07:11:43.524Z,69.21
2023-09-16T07:14:13.501Z,69.34
2023-09-16T07:16:43.574Z,68.91
2023-09-16T07:19:11.711Z,68.52
2023-09-16T07:21:41.353Z,68.53
2023-09-16T07:24:09.592Z,67.94
2023-09-16T07:26:37.673Z,68.31
2023-09-16T07:29:04.939Z,68.31
2023-09-16T07:31:32.142Z,67.74
2023-09-16T07:34:03.223Z,67.86
2023-09-16T07:36:39.612Z,67.74
2023-09-16T07:39:07.802Z,67.92
2023-09-16T07:41:36.006Z,67.12
2023-09-16T07:44:08.719Z,67.59
2023-09-16T07:46:36.334Z,68.20
2023-09-16T07:49:10.897Z,68.13
2023-09-16T07:51:48.000Z,66.84
2023-09-16T07:54:17.978Z,67.07
2023-09-16T07:56:45.957Z,66.92
2023-09-16T07:59:19.544Z,66.37
2023-09-16T08:01:47.228Z,66.73
2023-09-16T08:04:19.856Z,66.41
2023-09-16T08:06:52.227Z,65.84
2023-09-16T08:09:22.637Z,65.23
2023-09-16T08:11:54.193Z,65.53
2023-09-16T08:14:23.032Z,65.89
2023-09-16T08:17:00.028Z,65.87
2023-09-16T08:19:39.483Z,65.50
2023-09-16T08:22:08.918Z,65.92
2023-09-16T08:24:39.351Z,65.99
2023-09-16T08:27:10.263Z,65.86
2023-09-16T08:29:37.423Z,65.62
2023-09-16T08:32:05.067Z,65.90
2023-09-16T08:34:33.292Z,66.48
2023-09-16T08:37:08.334Z,67.18
2023-09-16T08:39:38.785Z,67.57
2023-09-16T08:42:30.354Z,67.23
2023-09-16T08:44:59.426Z,66.31
2023-09-16T08:47:54.610Z,66.55
2023-09-16T08:50:23.417Z,66.77
2023-09-16T08:52:51.420Z,67.11
2023-09-16T08:55:21.047Z,66.85
2023-09-16T08:57:59.439Z,67.20
2023-09-16T09:00:26.604Z,67.16
2023-09-16T09:03:12.273Z,66.84
2023-09-16T09:06:01.761Z,66.92
2023-09-16T09:08:32.741Z,67.19
2023-09-16T09:11:00.887Z,67.27
2023-09-16T09:13:31.550Z,67.47
2023-09-16T09:16:09.409Z,66.58
2023-09-16T09:18:40.283Z,66.14
2023-09-16T09:21:07.418Z,66.23
2023-09-16T09:23:44.353Z,66.77
2023-09-16T09:26:20.452Z,65.81
2023-09-16T09:28:49.647Z,66.20
2023-09-16T09:31:17.026Z,66.30
2023-09-16T09:34:20.074Z,65.66
2023-09-16T09:37:08.056Z,65.72
2023-09-16T09:39:36.739Z,65.11
2023-09-16T09:42:05.106Z,64.57
2023-09-16T09:44:34.086Z,64.70
2023-09-16T09:47:04.304Z,63.99
2023-09-16T09:49:32.844Z,64.15
2023-09-16T09:52:00.284Z,64.51
2023-09-16T09:54:29.283Z,64.28
2023-09-16T09:56:56.435Z,63.34
2023-09-16T09:59:25.805Z,63.52
2023-09-16T10:01:52.984Z,63.57
2023-09-16T10:04:20.648Z,62.57
2023-09-16T10:06:48.168Z,62.79
2023-09-16T10:09:17.870Z,62.57
2023-09-16T10:11:46.549Z,62.54
2023-09-16T10:14:14.671Z,62.91
2023-09-16T10:17:22.503Z,62.93
2023-09-16T10:19:49.745Z,62.82
2023-09-16T10:22:17.995Z,62.78
2023-09-16T10:24:51.293Z,62.69
2023-09-16T10:27:24.271Z,62.00
2023-09-16T10:29:52.963Z,61.39
2023-09-16T10:32:20.574Z,61.71
2023-09-16T10:34:48.531Z,60.91
2023-09-16T10:37:21.831Z,60.58
2023-09-16T10:39:48.942Z,60.49
2023-09-16T10:42:21.746Z,60.53
2023-09-16T10:44:49.716Z,60.45
2023-09-16T10:47:17.785Z,60.19
2023-09-16T10:49:48.789Z,59.88
2023-09-16T10:52:17.608Z,59.79
2023-09-16T10:54:49.291Z,59.60
2023-09-16T10:57:23.298Z,59.88
2023-09-16T10:59:50.721Z,59.47
2023-09-16T11:02:21.799Z,59.55
2023-09-16T11:04:52.409Z,59.57
2023-09-16T11:07:22.692Z,59.54
2023-09-16T11:09:51.458Z,59.01
2023-09-16T11:12:19.593Z,59.19
2023-09-16T11:14:47.027Z,59.58
2023-09-16T11:17:17.657Z,59.55
2023-09-16T11:19:48.010Z,59.37
2023-09-16T11:22:18.783Z,58.94
2023-09-16T11:25:06.939Z,59.11
2023-09-16T11:27:35.042Z,58.60
2023-09-16T11:30:11.413Z,59.02
2023-09-16T11:32:40.333Z,58.78
2023-09-16T11:35:10.929Z,59.10
2023-09-16T11:37:39.618Z,58.92
2023-09-16T11:40:10.480Z,59.08
2023-09-16T11:42:38.500Z,58.54
2023-09-16T11:45:08.503Z,59.25
2023-09-16T11:47:37.141Z,59.46
2023-09-16T11:50:08.729Z,59.00
2023-09-16T11:52:40.200Z,58.84
2023-09-16T11:55:07.572Z,58.98
2023-09-16T11:57:37.394Z,58.57
2023-09-16T12:00:11.485Z,58.51
2023-09-16T12:02:39.054Z,58.71
2023-09-16T12:05:07.160Z,59.01
2023-09-16T12:07:35.014Z,58.51
2023-09-16T12:10:09.179Z,58.49
2023-09-16T12:12:37.309Z,58.35
2023-09-16T12:15:09.062Z,58.95
2023-09-16T12:17:36.688Z,59.52
2023-09-16T12:20:07.631Z,59.57
2023-09-16T12:22:36.790Z,59.52
2023-09-16T12:25:05.649Z,59.20
2023-09-16T12:27:33.554Z,58.35
2023-09-16T12:30:00.790Z,58.29
2023-09-16T12:32:28.858Z,58.69
2023-09-16T12:35:10.827Z,59.10
2023-09-16T12:37:46.261Z,60.08
2023-09-16T12:40:17.066Z,59.63
2023-09-16T12:42:48.478Z,59.83
2023-09-16T12:45:16.731Z,59.68
2023-09-16T12:47:46.625Z,58.99
2023-09-16T12:50:16.223Z,58.85
2023-09-16T12:52:47.789Z,58.78
2023-09-16T12:55:15.625Z,58.44
2023-09-16T12:58:02.892Z,58.23
2023-09-16T13:00:30.393Z,58.01
2023-09-16T13:02:59.601Z,57.48
2023-09-16T13:05:30.972Z,57.71
2023-09-16T13:08:01.939Z,58.06
2023-09-16T13:10:36.437Z,57.76
2023-09-16T13:13:26.453Z,57.74
2023-09-16T13:15:54.942Z,57.88
2023-09-16T13:18:23.452Z,57.93
2023-09-16T13:20:54.312Z,57.76
2023-09-16T13:23:26.615Z,57.71
2023-09-16T13:26:11.742Z,57.59
2023-09-16T13:28:39.626Z,57.27
2023-09-16T13:31:10.336Z,57.75
2023-09-16T13:34:09.114Z,57.86
2023-09-16T13:36:39.861Z,57.71
2023-09-16T13:39:15.773Z,57.60
2023-09-16T13:41:44.965Z,57.62
2023-09-16T13:44:13.367Z,57.48
2023-09-16T13:46:42.002Z,57.83
2023-09-16T13:49:13.787Z,57.76
2023-09-16T13:51:42.451Z,57.76
2023-09-16T13:54:09.518Z,57.73
2023-09-16T13:56:42.041Z,58.35
2023-09-16T13:59:09.811Z,58.38
2023-09-16T14:01:36.906Z,58.53
2023-09-16T14:04:05.818Z,58.58
2023-09-16T14:06:35.996Z,58.27
2023-09-16T14:09:07.025Z,58.44
2023-09-16T14:11:35.225Z,58.72
2023-09-16T14:14:02.493Z,58.91
2023-09-16T14:16:32.647Z,59.05
2023-09-16T14:19:02.554Z,59.24
2023-09-16T14:21:30.937Z,59.45
2023-09-16T14:23:58.361Z,59.27
2023-09-16T14:26:26.382Z,59.41
2023-09-16T14:28:56.564Z,59.77
2023-09-16T14:31:23.804Z,59.44
2023-09-16T14:33:54.494Z,59.80
2023-09-16T14:36:22.062Z,59.88
2023-09-16T14:38:50.621Z,60.20
2023-09-16T14:41:21.214Z,60.12
2023-09-16T14:43:53.498Z,60.28
2023-09-16T14:46:22.894Z,60.09
2023-09-16T14:48:56.357Z,59.69
2023-09-16T14:51:26.280Z,59.56
2023-09-16T14:53:54.221Z,59.23
2023-09-16T14:56:23.893Z,59.54
2023-09-16T14:58:57.855Z,59.78
2023-09-16T15:01:26.277Z,60.11
2023-09-16T15:03:56.604Z,59.75
2023-09-16T15:06:23.932Z,59.43
2023-09-16T15:08:54.674Z,59.37
2023-09-16T15:11:24.998Z,59.17
2023-09-16T15:13:55.199Z,59.07
2023-09-16T15:16:24.712Z,58.85
2023-09-16T15:18:52.518Z,59.39
2023-09-16T15:21:24.843Z,59.64
2023-09-16T15:23:55.452Z,59.72
2023-09-16T15:26:22.501Z,59.41
2023-09-16T15:28:50.988Z,59.37
2023-09-16T15:31:22.612Z,59.31
2023-09-16T15:33:51.375Z,59.47
2023-09-16T15:36:22.112Z,59.43
2023-09-16T15:38:52.759Z,59.81
2023-09-16T15:41:19.993Z,59.95
2023-09-16T15:43:48.932Z,59.92
2023-09-16T15:46:16.688Z,60.28
2023-09-16T15:48:43.771Z,60.33
2023-09-16T15:51:16.801Z,60.86
2023-09-16T15:53:45.085Z,61.18
2023-09-16T15:56:16.803Z,60.94
2023-09-16T15:58:45.703Z,61.20
2023-09-16T16:01:19.045Z,61.37
2023-09-16T16:03:47.500Z,61.46
2023-09-16T16:06:16.289Z,61.69
2023-09-16T16:08:43.551Z,62.20
2023-09-16T16:11:13.279Z,62.40
2023-09-16T16:13:40.579Z,63.11
2023-09-16T16:16:10.389Z,63.13
2023-09-16T16:18:38.263Z,63.42
2023-09-16T16:21:05.563Z,63.75
2023-09-16T16:23:36.048Z,64.04
2023-09-16T16:26:04.236Z,64.33
2023-09-16T16:28:31.988Z,64.64
2023-09-16T16:31:00.332Z,65.07
2023-09-16T16:33:27.646Z,65.27
2023-09-16T16:35:54.693Z,65.70
2023-09-16T16:38:25.913Z,66.16
2023-09-16T16:40:55.857Z,66.62
2023-09-16T16:43:25.278Z,66.94
2023-09-16T16:45:52.894Z,67.21
2023-09-16T16:48:20.932Z,67.40
2023-09-16T16:50:53.161Z,67.64
2023-09-16T16:53:20.673Z,68.08
2023-09-16T16:55:48.385Z,68.26
2023-09-16T16:58:17.187Z,68.47
2023-09-16T17:00:45.258Z,68.49
2023-09-16T17:03:14.815Z,68.93
2023-09-16T17:05:54.290Z,69.39
2023-09-16T17:08:21.698Z,69.53
2023-09-16T17:10:50.987Z,69.79
2023-09-16T17:13:19.243Z,70.01
2023-09-16T17:15:46.755Z,70.50
2023-09-16T17:18:18.933Z,70.75
2023-09-16T17:20:46.757Z,70.89
2023-09-16T17:23:40.419Z,70.63
2023-09-16T17:26:11.017Z,70.43
2023-09-16T17:28:38.943Z,70.53
2023-09-16T17:31:06.351Z,71.11
2023-09-16T17:33:39.475Z,71.61
2023-09-16T17:36:10.032Z,72.06
2023-09-16T17:38:40.269Z,72.36
2023-09-16T17:41:11.198Z,72.57
2023-09-16T17:43:42.291Z,72.30
2023-09-16T17:46:10.105Z,71.62
2023-09-16T17:48:40.453Z,71.41
2023-09-16T17:51:07.930Z,71.37
2023-09-16T17:53:35.818Z,72.07
2023-09-16T17:56:05.542Z,71.61
2023-09-16T17:58:37.485Z,71.24
2023-09-16T18:01:08.361Z,71.34
2023-09-16T18:03:58.466Z,71.55
2023-09-16T18:06:27.337Z,71.42
2023-09-16T18:08:54.563Z,72.18
2023-09-16T18:11:23.030Z,72.54
2023-09-16T18:13:50.407Z,73.25
2023-09-16T18:16:19.740Z,73.79
2023-09-16T18:18:47.168Z,73.75
2023-09-16T18:21:15.326Z,74.06
2023-09-16T18:23:46.342Z,73.83
2023-09-16T18:26:19.647Z,73.93
2023-09-16T18:28:48.321Z,74.09
2023-09-16T18:31:17.761Z,74.38
2023-09-16T18:33:50.578Z,74.71
2023-09-16T18:36:17.792Z,74.69
2023-09-16T18:38:48.203Z,75.06
2023-09-16T18:41:19.830Z,74.95
2023-09-16T18:43:48.660Z,75.43
2023-09-16T18:46:15.974Z,76.11
2023-09-16T18:48:53.388Z,76.85
2023-09-16T18:51:21.496Z,77.23
2023-09-16T18:53:51.531Z,77.42
2023-09-16T18:56:23.001Z,77.51
2023-09-16T18:58:51.055Z,78.02
2023-09-16T19:01:19.104Z,78.94
2023-09-16T19:03:48.771Z,79.71
2023-09-16T19:06:17.521Z,80.17
2023-09-16T19:08:48.073Z,79.98
2023-09-16T19:11:24.721Z,80.08
2023-09-16T19:13:52.647Z,80.37
2023-09-16T19:16:24.019Z,80.34
2023-09-16T19:18:55.302Z,80.17
2023-09-16T19:21:24.562Z,80.12
2023-09-16T19:23:57.038Z,80.05
2023-09-16T19:26:36.730Z,79.65
2023-09-16T19:29:07.475Z,79.11
2023-09-16T19:31:36.879Z,79.22
2023-09-16T19:34:05.872Z,79.37
2023-09-16T19:36:33.950Z,79.81
2023-09-16T19:39:05.268Z,79.34
2023-09-16T19:41:34.657Z,79.40
2023-09-16T19:44:06.188Z,80.02
2023-09-16T19:46:46.795Z,80.40
2023-09-16T19:49:21.715Z,80.62
2023-09-16T19:51:50.770Z,80.35
2023-09-16T19:54:19.773Z,80.36
2023-09-16T19:57:03.944Z,81.09
2023-09-16T19:59:35.152Z,81.34
2023-09-16T20:02:06.741Z,81.20
2023-09-16T20:04:38.189Z,81.01
2023-09-16T20:07:07.480Z,81.05
2023-09-16T20:09:35.800Z,81.14
2023-09-16T20:12:03.247Z,81.01
2023-09-16T20:14:32.306Z,81.08
2023-09-16T20:17:00.742Z,81.36
2023-09-16T20:19:33.488Z,81.97
2023-09-16T20:22:07.008Z,82.28
2023-09-16T20:24:39.604Z,82.55
2023-09-16T20:27:17.396Z,82.76
2023-09-16T20:29:46.121Z,82.74
2023-09-16T20:32:24.416Z,82.71
2023-09-16T20:34:54.802Z,82.59
2023-09-16T20:37:25.197Z,82.28
2023-09-16T20:39:58.173Z,82.46
2023-09-16T20:42:29.132Z,82.63
2023-09-16T20:44:59.924Z,82.79
2023-09-16T20:47:29.706Z,81.53
2023-09-16T20:49:58.868Z,80.58
2023-09-16T20:52:28.485Z,80.86
2023-09-16T20:55:00.770Z,80.94
2023-09-16T20:57:34.724Z,81.33
2023-09-16T21:00:20.369Z,81.69
2023-09-16T21:02:50.103Z,81.43
2023-09-16T21:05:20.012Z,80.83
2023-09-16T21:07:47.973Z,80.58
2023-09-16T21:10:19.340Z,80.63
2023-09-16T21:12:49.190Z,80.93
2023-09-16T21:15:23.110Z,81.57
2023-09-16T21:17:51.486Z,81.89
2023-09-16T21:20:23.778Z,82.03
2023-09-16T21:22:53.809Z,81.66
2023-09-16T21:25:22.662Z,80.66
2023-09-16T21:27:54.653Z,80.67
2023-09-16T21:30:24.294Z,80.78
2023-09-16T21:32:52.561Z,80.62
2023-09-16T21:35:37.507Z,80.36
2023-09-16T21:38:07.515Z,80.34
2023-09-16T21:40:36.729Z,80.20
2023-09-16T21:43:07.754Z,80.35
2023-09-16T21:45:38.048Z,80.62
2023-09-16T21:48:08.668Z,80.43
2023-09-16T21:50:40.469Z,80.39
2023-09-16T21:53:29.634Z,80.30
2023-09-16T21:55:58.097Z,80.49
2023-09-16T21:58:29.469Z,81.13
2023-09-16T22:00:58.686Z,81.43
2023-09-16T22:03:36.071Z,80.94
2023-09-16T22:06:07.646Z,80.84
2023-09-16T22:08:37.634Z,81.09
2023-09-16T22:11:23.856Z,81.14
2023-09-16T22:13:53.538Z,81.57
2023-09-16T22:16:31.928Z,81.89
2023-09-16T22:19:02.459Z,82.09
2023-09-16T22:21:32.781Z,82.27
2023-09-16T22:24:02.957Z,82.30
2023-09-16T22:26:32.736Z,82.47
2023-09-16T22:29:02.221Z,82.59
2023-09-16T22:31:32.447Z,82.68
2023-09-16T22:34:05.733Z,83.09
2023-09-16T22:36:36.765Z,83.16
2023-09-16T22:39:07.094Z,83.41
2023-09-16T22:41:36.680Z,83.76
2023-09-16T22:44:08.400Z,84.11
2023-09-16T22:46:41.144Z,84.28
2023-09-16T22:49:11.959Z,84.46
2023-09-16T22:51:44.494Z,84.47
2023-09-16T22:54:21.543Z,84.91
2023-09-16T22:56:57.987Z,84.69
2023-09-16T22:59:27.019Z,85.20
2023-09-16T23:02:12.181Z,85.67
2023-09-16T23:04:41.573Z,86.09
2023-09-16T23:07:11.789Z,86.54
2023-09-16T23:09:49.389Z,86.69
2023-09-16T23:12:21.879Z,86.67
2023-09-16T23:14:54.852Z,87.13
2023-09-16T23:17:24.578Z,87.31
2023-09-16T23:19:55.109Z,87.50
2023-09-16T23:22:25.329Z,87.51
2023-09-16T23:24:55.195Z,87.87
2023-09-16T23:27:26.676Z,88.17
2023-09-16T23:29:57.131Z,88.71
2023-09-16T23:32:26.386Z,89.09
2023-09-16T23:34:57.999Z,89.23
2023-09-16T23:37:28.634Z,89.19
2023-09-16T23:39:58.355Z,89.15
2023-09-16T23:42:27.555Z,89.12
2023-09-16T23:44:55.686Z,88.77
2023-09-16T23:47:25.735Z,88.68
2023-09-16T23:49:55.432Z,88.34
2023-09-16T23:52:24.506Z,88.09
2023-09-16T23:54:54.399Z,88.02
2023-09-16T23:57:24.441Z,87.66
2023-09-16T23:59:54.400Z,87.38
